Forney's Hourly Summary for Saturday, July 7, 2018
Hour Temp
(f)
RH
(%)
Solar Rad.
(MJ/m2)
Rainfall
(in)
Wind
(mph)
7/7/2018 12:00 AM 77 75 0 0 0.95
7/7/2018 1:00 AM 77 76 0 0 0.17
7/7/2018 2:00 AM 76 77 0 0 0.24
7/7/2018 3:00 AM 74 84 0 0 0.84
7/7/2018 4:00 AM 73 84 0 0 0.63
7/7/2018 5:00 AM 72 86 0 0 0.8
7/7/2018 6:00 AM 72 86 0 0 0.89
7/7/2018 7:00 AM 72 89 0.03 0 0.27
7/7/2018 8:00 AM 73 83 0.46 0 1.91
7/7/2018 9:00 AM 76 75 1.14 0 2.69
7/7/2018 10:00 AM 79 68 1.71 0 3.44
7/7/2018 11:00 AM 83 61 2.35 0 2.44
7/7/2018 12:00 PM 86 54 2.19 0 2.04
7/7/2018 1:00 PM 87 52 1.93 0 3.09
7/7/2018 2:00 PM 90 44 2.91 0 4.16
7/7/2018 3:00 PM 91 39 3 0 4.84
7/7/2018 4:00 PM 93 39 2.66 0 5.58
7/7/2018 5:00 PM 93 38 1.94 0 4.75
7/7/2018 6:00 PM 94 36 1.71 0 5.99
7/7/2018 7:00 PM 92 44 1 0 6.12
7/7/2018 8:00 PM 90 45 0.32 0 4.64
7/7/2018 9:00 PM 88 47 0.05 0 3.08
7/7/2018 10:00 PM 86 52 0 0 2.06
7/7/2018 11:00 PM 83 57 0 0 2.42
Data Summary 82 62 23.40 0.00 2.67